sensor_id;sensor_type;location;lat;lon;timestamp;P1;durP1;ratioP1;P2;durP2;ratioP2
5403;SDS011;2725;51.054;6.948;2022-08-11T00:00:05;1.7;;;1.5;;
5403;SDS011;2725;51.054;6.948;2022-08-11T00:05:04;2.0;;;1.7;;
5403;SDS011;2725;51.054;6.948;2022-08-11T00:10:01;2.0;;;1.7;;
5403;SDS011;2725;51.054;6.948;2022-08-11T00:15:02;2.0;;;1.7;;
5403;SDS011;2725;51.054;6.948;2022-08-11T00:20:03;2.0;;;1.7;;
5403;SDS011;2725;51.054;6.948;2022-08-11T00:25:10;2.2;;;1.7;;
5403;SDS011;2725;51.054;6.948;2022-08-11T00:30:03;2.2;;;1.7;;
5403;SDS011;2725;51.054;6.948;2022-08-11T00:35:01;2.5;;;1.7;;
5403;SDS011;2725;51.054;6.948;2022-08-11T00:40:01;2.5;;;1.7;;
5403;SDS011;2725;51.054;6.948;2022-08-11T00:45:36;1.6;;;1.5;;
5403;SDS011;2725;51.054;6.948;2022-08-11T00:50:36;1.6;;;1.5;;
5403;SDS011;2725;51.054;6.948;2022-08-11T00:55:06;2.0;;;1.8;;
5403;SDS011;2725;51.054;6.948;2022-08-11T01:00:05;2.0;;;1.8;;
5403;SDS011;2725;51.054;6.948;2022-08-11T01:05:22;2.1;;;1.9;;
5403;SDS011;2725;51.054;6.948;2022-08-11T01:10:06;2.1;;;1.9;;
5403;SDS011;2725;51.054;6.948;2022-08-11T01:15:55;2.0;;;1.7;;
5403;SDS011;2725;51.054;6.948;2022-08-11T01:20:06;2.0;;;1.7;;
5403;SDS011;2725;51.054;6.948;2022-08-11T01:30:06;1.9;;;1.7;;
5403;SDS011;2725;51.054;6.948;2022-08-11T01:35:12;1.9;;;1.7;;
5403;SDS011;2725;51.054;6.948;2022-08-11T01:40:13;1.9;;;1.7;;
5403;SDS011;2725;51.054;6.948;2022-08-11T01:45:10;2.2;;;1.4;;
5403;SDS011;2725;51.054;6.948;2022-08-11T01:50:13;2.2;;;1.4;;
5403;SDS011;2725;51.054;6.948;2022-08-11T01:55:10;1.9;;;1.7;;
5403;SDS011;2725;51.054;6.948;2022-08-11T02:00:11;1.9;;;1.7;;
5403;SDS011;2725;51.054;6.948;2022-08-11T02:05:04;1.7;;;1.6;;
5403;SDS011;2725;51.054;6.948;2022-08-11T02:10:22;1.7;;;1.6;;
5403;SDS011;2725;51.054;6.948;2022-08-11T02:15:22;2.3;;;1.6;;
5403;SDS011;2725;51.054;6.948;2022-08-11T02:20:03;2.3;;;1.6;;
5403;SDS011;2725;51.054;6.948;2022-08-11T02:25:05;2.0;;;1.6;;
5403;SDS011;2725;51.054;6.948;2022-08-11T02:30:03;2.0;;;1.6;;
5403;SDS011;2725;51.054;6.948;2022-08-11T02:35:11;1.9;;;1.7;;
5403;SDS011;2725;51.054;6.948;2022-08-11T02:45:11;1.8;;;1.7;;
5403;SDS011;2725;51.054;6.948;2022-08-11T02:50:11;1.8;;;1.7;;
5403;SDS011;2725;51.054;6.948;2022-08-11T02:55:10;2.0;;;1.8;;
5403;SDS011;2725;51.054;6.948;2022-08-11T03:00:06;2.0;;;1.8;;
5403;SDS011;2725;51.054;6.948;2022-08-11T03:05:41;1.9;;;1.7;;
5403;SDS011;2725;51.054;6.948;2022-08-11T03:10:04;1.9;;;1.7;;
5403;SDS011;2725;51.054;6.948;2022-08-11T03:15:06;2.0;;;1.7;;
5403;SDS011;2725;51.054;6.948;2022-08-11T03:20:12;2.0;;;1.7;;
5403;SDS011;2725;51.054;6.948;2022-08-11T03:25:02;1.8;;;1.7;;
5403;SDS011;2725;51.054;6.948;2022-08-11T03:30:05;1.8;;;1.7;;
5403;SDS011;2725;51.054;6.948;2022-08-11T03:35:02;2.0;;;1.9;;
5403;SDS011;2725;51.054;6.948;2022-08-11T03:40:04;2.0;;;1.9;;
5403;SDS011;2725;51.054;6.948;2022-08-11T03:45:35;1.9;;;1.8;;
5403;SDS011;2725;51.054;6.948;2022-08-11T03:50:13;1.9;;;1.8;;
5403;SDS011;2725;51.054;6.948;2022-08-11T04:01:13;1.9;;;1.8;;
5403;SDS011;2725;51.054;6.948;2022-08-11T04:06:42;1.9;;;1.8;;
5403;SDS011;2725;51.054;6.948;2022-08-11T04:15:36;2.1;;;1.9;;
5403;SDS011;2725;51.054;6.948;2022-08-11T04:20:10;2.1;;;1.9;;
5403;SDS011;2725;51.054;6.948;2022-08-11T04:25:20;2.8;;;2.2;;
5403;SDS011;2725;51.054;6.948;2022-08-11T04:30:04;2.8;;;2.2;;
5403;SDS011;2725;51.054;6.948;2022-08-11T04:36:10;3.3;;;2.2;;
5403;SDS011;2725;51.054;6.948;2022-08-11T04:45:07;2.1;;;1.9;;
5403;SDS011;2725;51.054;6.948;2022-08-11T04:50:07;2.1;;;1.9;;
5403;SDS011;2725;51.054;6.948;2022-08-11T04:55:14;2.3;;;2.0;;
5403;SDS011;2725;51.054;6.948;2022-08-11T05:00:04;2.3;;;2.0;;
5403;SDS011;2725;51.054;6.948;2022-08-11T05:06:15;2.7;;;1.9;;
5403;SDS011;2725;51.054;6.948;2022-08-11T05:11:11;2.7;;;1.9;;
5403;SDS011;2725;51.054;6.948;2022-08-11T05:15:01;2.6;;;2.2;;
5403;SDS011;2725;51.054;6.948;2022-08-11T05:20:02;2.6;;;2.2;;
5403;SDS011;2725;51.054;6.948;2022-08-11T05:25:09;2.8;;;2.4;;
5403;SDS011;2725;51.054;6.948;2022-08-11T05:30:03;2.8;;;2.4;;
5403;SDS011;2725;51.054;6.948;2022-08-11T05:35:02;2.8;;;2.4;;
5403;SDS011;2725;51.054;6.948;2022-08-11T05:40:07;2.8;;;2.4;;
5403;SDS011;2725;51.054;6.948;2022-08-11T05:45:03;2.4;;;2.1;;
5403;SDS011;2725;51.054;6.948;2022-08-11T05:50:01;2.4;;;2.1;;
5403;SDS011;2725;51.054;6.948;2022-08-11T05:55:02;2.5;;;2.1;;
5403;SDS011;2725;51.054;6.948;2022-08-11T06:00:03;2.5;;;2.1;;
5403;SDS011;2725;51.054;6.948;2022-08-11T06:05:01;2.3;;;2.0;;
5403;SDS011;2725;51.054;6.948;2022-08-11T06:10:01;2.3;;;2.0;;
5403;SDS011;2725;51.054;6.948;2022-08-11T06:15:03;2.3;;;2.0;;
5403;SDS011;2725;51.054;6.948;2022-08-11T06:20:03;2.3;;;2.0;;
5403;SDS011;2725;51.054;6.948;2022-08-11T06:25:02;2.4;;;2.1;;
5403;SDS011;2725;51.054;6.948;2022-08-11T06:30:02;2.4;;;2.1;;
5403;SDS011;2725;51.054;6.948;2022-08-11T06:35:10;2.9;;;2.1;;
5403;SDS011;2725;51.054;6.948;2022-08-11T06:41:12;2.9;;;2.1;;
5403;SDS011;2725;51.054;6.948;2022-08-11T06:45:06;2.5;;;2.0;;
5403;SDS011;2725;51.054;6.948;2022-08-11T06:50:01;2.5;;;2.0;;
5403;SDS011;2725;51.054;6.948;2022-08-11T06:55:06;2.5;;;2.0;;
5403;SDS011;2725;51.054;6.948;2022-08-11T07:00:02;2.5;;;2.0;;
5403;SDS011;2725;51.054;6.948;2022-08-11T07:05:04;3.5;;;2.0;;
5403;SDS011;2725;51.054;6.948;2022-08-11T07:10:22;3.5;;;2.0;;
5403;SDS011;2725;51.054;6.948;2022-08-11T07:15:02;2.7;;;1.9;;
5403;SDS011;2725;51.054;6.948;2022-08-11T07:20:01;2.7;;;1.9;;
5403;SDS011;2725;51.054;6.948;2022-08-11T07:25:02;2.4;;;2.0;;
5403;SDS011;2725;51.054;6.948;2022-08-11T07:30:03;2.4;;;2.0;;
5403;SDS011;2725;51.054;6.948;2022-08-11T07:35:03;3.0;;;2.0;;
5403;SDS011;2725;51.054;6.948;2022-08-11T07:40:01;3.0;;;2.0;;
5403;SDS011;2725;51.054;6.948;2022-08-11T07:45:04;2.5;;;1.9;;
5403;SDS011;2725;51.054;6.948;2022-08-11T07:50:02;2.5;;;1.9;;
5403;SDS011;2725;51.054;6.948;2022-08-11T07:55:03;2.5;;;1.8;;
5403;SDS011;2725;51.054;6.948;2022-08-11T08:00:01;2.5;;;1.8;;
5403;SDS011;2725;51.054;6.948;2022-08-11T08:05:02;2.6;;;1.8;;
5403;SDS011;2725;51.054;6.948;2022-08-11T08:10:01;2.6;;;1.8;;
5403;SDS011;2725;51.054;6.948;2022-08-11T08:15:04;2.2;;;1.9;;
5403;SDS011;2725;51.054;6.948;2022-08-11T08:20:02;2.2;;;1.9;;
5403;SDS011;2725;51.054;6.948;2022-08-11T08:25:02;3.3;;;1.8;;
5403;SDS011;2725;51.054;6.948;2022-08-11T08:30:02;3.3;;;1.8;;
5403;SDS011;2725;51.054;6.948;2022-08-11T08:35:01;2.8;;;1.9;;
5403;SDS011;2725;51.054;6.948;2022-08-11T08:40:01;2.8;;;1.9;;
5403;SDS011;2725;51.054;6.948;2022-08-11T08:45:04;3.0;;;1.8;;
5403;SDS011;2725;51.054;6.948;2022-08-11T08:50:04;3.0;;;1.8;;
5403;SDS011;2725;51.054;6.948;2022-08-11T08:55:03;2.8;;;1.8;;
5403;SDS011;2725;51.054;6.948;2022-08-11T09:00:04;2.8;;;1.8;;
5403;SDS011;2725;51.054;6.948;2022-08-11T09:05:02;2.3;;;1.9;;
5403;SDS011;2725;51.054;6.948;2022-08-11T09:10:01;2.3;;;1.9;;
5403;SDS011;2725;51.054;6.948;2022-08-11T09:15:03;2.1;;;1.6;;
5403;SDS011;2725;51.054;6.948;2022-08-11T09:20:04;2.1;;;1.6;;
5403;SDS011;2725;51.054;6.948;2022-08-11T09:25:02;2.5;;;1.8;;
5403;SDS011;2725;51.054;6.948;2022-08-11T09:30:02;2.5;;;1.8;;
5403;SDS011;2725;51.054;6.948;2022-08-11T09:35:01;3.6;;;1.8;;
5403;SDS011;2725;51.054;6.948;2022-08-11T09:40:02;3.6;;;1.8;;
5403;SDS011;2725;51.054;6.948;2022-08-11T09:45:01;2.5;;;1.8;;
5403;SDS011;2725;51.054;6.948;2022-08-11T09:50:01;2.5;;;1.8;;
5403;SDS011;2725;51.054;6.948;2022-08-11T09:55:02;4.6;;;1.9;;
5403;SDS011;2725;51.054;6.948;2022-08-11T10:00:02;4.6;;;1.9;;
5403;SDS011;2725;51.054;6.948;2022-08-11T10:05:01;4.6;;;1.9;;
5403;SDS011;2725;51.054;6.948;2022-08-11T10:10:01;4.6;;;1.9;;
5403;SDS011;2725;51.054;6.948;2022-08-11T10:15:03;1.8;;;1.6;;
5403;SDS011;2725;51.054;6.948;2022-08-11T10:20:01;1.8;;;1.6;;
5403;SDS011;2725;51.054;6.948;2022-08-11T10:25:02;3.0;;;1.8;;
5403;SDS011;2725;51.054;6.948;2022-08-11T10:30:01;3.0;;;1.8;;
5403;SDS011;2725;51.054;6.948;2022-08-11T10:35:01;2.5;;;1.6;;
5403;SDS011;2725;51.054;6.948;2022-08-11T10:40:02;2.5;;;1.6;;
5403;SDS011;2725;51.054;6.948;2022-08-11T10:45:03;5.6;;;1.7;;
5403;SDS011;2725;51.054;6.948;2022-08-11T10:50:02;5.6;;;1.7;;
5403;SDS011;2725;51.054;6.948;2022-08-11T10:55:01;2.5;;;1.7;;
5403;SDS011;2725;51.054;6.948;2022-08-11T11:00:03;2.5;;;1.7;;
5403;SDS011;2725;51.054;6.948;2022-08-11T11:05:33;1.9;;;1.7;;
5403;SDS011;2725;51.054;6.948;2022-08-11T11:10:03;1.9;;;1.7;;
5403;SDS011;2725;51.054;6.948;2022-08-11T11:15:02;2.2;;;1.7;;
5403;SDS011;2725;51.054;6.948;2022-08-11T11:20:02;2.2;;;1.7;;
5403;SDS011;2725;51.054;6.948;2022-08-11T11:25:05;2.4;;;1.6;;
5403;SDS011;2725;51.054;6.948;2022-08-11T11:30:03;2.4;;;1.6;;
5403;SDS011;2725;51.054;6.948;2022-08-11T11:35:12;2.2;;;1.4;;
5403;SDS011;2725;51.054;6.948;2022-08-11T11:40:05;2.2;;;1.4;;
5403;SDS011;2725;51.054;6.948;2022-08-11T11:45:02;2.1;;;1.7;;
5403;SDS011;2725;51.054;6.948;2022-08-11T11:50:01;2.1;;;1.7;;
5403;SDS011;2725;51.054;6.948;2022-08-11T11:55:02;3.5;;;1.7;;
5403;SDS011;2725;51.054;6.948;2022-08-11T12:00:04;3.5;;;1.7;;
5403;SDS011;2725;51.054;6.948;2022-08-11T12:05:01;3.5;;;1.7;;
5403;SDS011;2725;51.054;6.948;2022-08-11T12:10:02;3.5;;;1.7;;
5403;SDS011;2725;51.054;6.948;2022-08-11T12:15:01;3.8;;;1.8;;
5403;SDS011;2725;51.054;6.948;2022-08-11T12:20:02;3.8;;;1.8;;
5403;SDS011;2725;51.054;6.948;2022-08-11T12:25:02;2.2;;;1.5;;
5403;SDS011;2725;51.054;6.948;2022-08-11T12:30:03;2.2;;;1.5;;
5403;SDS011;2725;51.054;6.948;2022-08-11T12:35:02;2.2;;;1.6;;
5403;SDS011;2725;51.054;6.948;2022-08-11T12:40:03;2.2;;;1.6;;
5403;SDS011;2725;51.054;6.948;2022-08-11T12:45:01;2.8;;;1.6;;
5403;SDS011;2725;51.054;6.948;2022-08-11T12:50:07;2.8;;;1.6;;
5403;SDS011;2725;51.054;6.948;2022-08-11T12:55:10;2.7;;;1.6;;
5403;SDS011;2725;51.054;6.948;2022-08-11T13:00:03;2.7;;;1.6;;
5403;SDS011;2725;51.054;6.948;2022-08-11T13:05:02;2.8;;;1.7;;
5403;SDS011;2725;51.054;6.948;2022-08-11T13:10:03;2.8;;;1.7;;
5403;SDS011;2725;51.054;6.948;2022-08-11T13:15:01;2.8;;;1.8;;
5403;SDS011;2725;51.054;6.948;2022-08-11T13:20:01;2.8;;;1.8;;
5403;SDS011;2725;51.054;6.948;2022-08-11T13:25:02;2.0;;;1.5;;
5403;SDS011;2725;51.054;6.948;2022-08-11T13:30:02;2.0;;;1.5;;
5403;SDS011;2725;51.054;6.948;2022-08-11T13:35:02;2.0;;;1.5;;
5403;SDS011;2725;51.054;6.948;2022-08-11T13:40:02;2.0;;;1.5;;
5403;SDS011;2725;51.054;6.948;2022-08-11T13:45:01;2.7;;;1.5;;
5403;SDS011;2725;51.054;6.948;2022-08-11T13:50:01;2.7;;;1.5;;
5403;SDS011;2725;51.054;6.948;2022-08-11T13:55:01;2.8;;;1.6;;
5403;SDS011;2725;51.054;6.948;2022-08-11T14:00:02;2.8;;;1.6;;
5403;SDS011;2725;51.054;6.948;2022-08-11T14:05:05;1.9;;;1.7;;
5403;SDS011;2725;51.054;6.948;2022-08-11T14:10:01;1.9;;;1.7;;
5403;SDS011;2725;51.054;6.948;2022-08-11T14:15:02;2.0;;;1.8;;
5403;SDS011;2725;51.054;6.948;2022-08-11T14:20:03;2.0;;;1.8;;
5403;SDS011;2725;51.054;6.948;2022-08-11T14:25:02;2.0;;;1.7;;
5403;SDS011;2725;51.054;6.948;2022-08-11T14:30:02;2.0;;;1.7;;
5403;SDS011;2725;51.054;6.948;2022-08-11T14:35:01;1.8;;;1.6;;
5403;SDS011;2725;51.054;6.948;2022-08-11T14:40:02;1.8;;;1.6;;
5403;SDS011;2725;51.054;6.948;2022-08-11T14:45:06;1.8;;;1.6;;
5403;SDS011;2725;51.054;6.948;2022-08-11T14:50:02;1.8;;;1.6;;
5403;SDS011;2725;51.054;6.948;2022-08-11T14:55:03;4.0;;;1.7;;
5403;SDS011;2725;51.054;6.948;2022-08-11T15:00:02;4.0;;;1.7;;
5403;SDS011;2725;51.054;6.948;2022-08-11T15:05:02;4.0;;;1.7;;
5403;SDS011;2725;51.054;6.948;2022-08-11T15:10:02;4.0;;;1.7;;
5403;SDS011;2725;51.054;6.948;2022-08-11T15:15:02;1.7;;;1.6;;
5403;SDS011;2725;51.054;6.948;2022-08-11T15:20:03;1.7;;;1.6;;
5403;SDS011;2725;51.054;6.948;2022-08-11T15:25:02;1.7;;;1.6;;
5403;SDS011;2725;51.054;6.948;2022-08-11T15:30:02;1.7;;;1.6;;
5403;SDS011;2725;51.054;6.948;2022-08-11T15:35:02;3.0;;;1.7;;
5403;SDS011;2725;51.054;6.948;2022-08-11T15:40:05;3.0;;;1.7;;
5403;SDS011;2725;51.054;6.948;2022-08-11T15:45:02;3.0;;;1.8;;
5403;SDS011;2725;51.054;6.948;2022-08-11T15:50:01;3.0;;;1.8;;
5403;SDS011;2725;51.054;6.948;2022-08-11T15:55:04;2.6;;;1.8;;
5403;SDS011;2725;51.054;6.948;2022-08-11T16:00:02;2.6;;;1.8;;
5403;SDS011;2725;51.054;6.948;2022-08-11T16:05:02;1.8;;;1.7;;
5403;SDS011;2725;51.054;6.948;2022-08-11T16:10:05;1.8;;;1.7;;
5403;SDS011;2725;51.054;6.948;2022-08-11T16:15:02;2.0;;;1.8;;
5403;SDS011;2725;51.054;6.948;2022-08-11T16:20:02;2.0;;;1.8;;
5403;SDS011;2725;51.054;6.948;2022-08-11T16:25:02;2.6;;;1.7;;
5403;SDS011;2725;51.054;6.948;2022-08-11T16:30:02;2.6;;;1.7;;
5403;SDS011;2725;51.054;6.948;2022-08-11T16:35:03;3.2;;;2.0;;
5403;SDS011;2725;51.054;6.948;2022-08-11T16:40:02;3.2;;;2.0;;
5403;SDS011;2725;51.054;6.948;2022-08-11T16:45:02;3.2;;;2.0;;
5403;SDS011;2725;51.054;6.948;2022-08-11T16:50:01;3.2;;;2.0;;
5403;SDS011;2725;51.054;6.948;2022-08-11T16:55:01;2.0;;;1.8;;
5403;SDS011;2725;51.054;6.948;2022-08-11T17:00:03;2.0;;;1.8;;
5403;SDS011;2725;51.054;6.948;2022-08-11T17:05:02;2.0;;;1.8;;
5403;SDS011;2725;51.054;6.948;2022-08-11T17:10:02;2.0;;;1.8;;
5403;SDS011;2725;51.054;6.948;2022-08-11T17:15:02;1.9;;;1.7;;
5403;SDS011;2725;51.054;6.948;2022-08-11T17:20:02;1.9;;;1.7;;
5403;SDS011;2725;51.054;6.948;2022-08-11T17:25:02;2.2;;;2.0;;
5403;SDS011;2725;51.054;6.948;2022-08-11T17:30:03;2.2;;;2.0;;
5403;SDS011;2725;51.054;6.948;2022-08-11T17:35:03;2.2;;;2.0;;
5403;SDS011;2725;51.054;6.948;2022-08-11T17:40:04;2.2;;;2.0;;
5403;SDS011;2725;51.054;6.948;2022-08-11T17:45:01;3.2;;;1.8;;
5403;SDS011;2725;51.054;6.948;2022-08-11T17:50:02;3.2;;;1.8;;
5403;SDS011;2725;51.054;6.948;2022-08-11T17:55:01;3.0;;;1.8;;
5403;SDS011;2725;51.054;6.948;2022-08-11T18:00:03;3.0;;;1.8;;
5403;SDS011;2725;51.054;6.948;2022-08-11T18:05:01;3.1;;;1.7;;
5403;SDS011;2725;51.054;6.948;2022-08-11T18:10:03;3.1;;;1.7;;
5403;SDS011;2725;51.054;6.948;2022-08-11T18:15:02;2.5;;;2.0;;
5403;SDS011;2725;51.054;6.948;2022-08-11T18:20:01;2.5;;;2.0;;
5403;SDS011;2725;51.054;6.948;2022-08-11T18:25:05;3.4;;;2.1;;
5403;SDS011;2725;51.054;6.948;2022-08-11T18:30:02;3.4;;;2.1;;
5403;SDS011;2725;51.054;6.948;2022-08-11T18:35:02;3.6;;;2.1;;
5403;SDS011;2725;51.054;6.948;2022-08-11T18:40:05;3.6;;;2.1;;
5403;SDS011;2725;51.054;6.948;2022-08-11T18:45:02;2.5;;;2.0;;
5403;SDS011;2725;51.054;6.948;2022-08-11T18:50:02;2.5;;;2.0;;
5403;SDS011;2725;51.054;6.948;2022-08-11T18:55:02;2.4;;;2.0;;
5403;SDS011;2725;51.054;6.948;2022-08-11T19:00:04;2.4;;;2.0;;
5403;SDS011;2725;51.054;6.948;2022-08-11T19:05:02;2.5;;;2.0;;
5403;SDS011;2725;51.054;6.948;2022-08-11T19:10:02;2.5;;;2.0;;
5403;SDS011;2725;51.054;6.948;2022-08-11T19:15:02;3.5;;;2.2;;
5403;SDS011;2725;51.054;6.948;2022-08-11T19:20:03;3.5;;;2.2;;
5403;SDS011;2725;51.054;6.948;2022-08-11T19:25:02;3.1;;;2.3;;
5403;SDS011;2725;51.054;6.948;2022-08-11T19:30:02;3.1;;;2.3;;
5403;SDS011;2725;51.054;6.948;2022-08-11T19:35:01;3.2;;;2.3;;
5403;SDS011;2725;51.054;6.948;2022-08-11T19:40:04;3.2;;;2.3;;
5403;SDS011;2725;51.054;6.948;2022-08-11T19:45:02;2.1;;;1.9;;
5403;SDS011;2725;51.054;6.948;2022-08-11T19:50:01;2.1;;;1.9;;
5403;SDS011;2725;51.054;6.948;2022-08-11T19:55:02;3.1;;;2.0;;
5403;SDS011;2725;51.054;6.948;2022-08-11T20:00:03;3.1;;;2.0;;
5403;SDS011;2725;51.054;6.948;2022-08-11T20:05:01;2.5;;;2.0;;
5403;SDS011;2725;51.054;6.948;2022-08-11T20:10:02;2.5;;;2.0;;
5403;SDS011;2725;51.054;6.948;2022-08-11T20:15:02;2.5;;;2.0;;
5403;SDS011;2725;51.054;6.948;2022-08-11T20:20:03;2.5;;;2.0;;
5403;SDS011;2725;51.054;6.948;2022-08-11T20:25:02;2.5;;;2.0;;
5403;SDS011;2725;51.054;6.948;2022-08-11T20:30:03;2.5;;;2.0;;
5403;SDS011;2725;51.054;6.948;2022-08-11T20:35:02;2.5;;;2.0;;
5403;SDS011;2725;51.054;6.948;2022-08-11T20:40:02;3.2;;;2.2;;
5403;SDS011;2725;51.054;6.948;2022-08-11T20:45:01;2.2;;;2.0;;
5403;SDS011;2725;51.054;6.948;2022-08-11T20:50:01;2.2;;;2.0;;
5403;SDS011;2725;51.054;6.948;2022-08-11T20:55:02;2.8;;;2.2;;
5403;SDS011;2725;51.054;6.948;2022-08-11T21:00:02;2.8;;;2.2;;
5403;SDS011;2725;51.054;6.948;2022-08-11T21:05:02;2.9;;;2.5;;
5403;SDS011;2725;51.054;6.948;2022-08-11T21:10:01;2.9;;;2.5;;
5403;SDS011;2725;51.054;6.948;2022-08-11T21:15:02;2.8;;;2.2;;
5403;SDS011;2725;51.054;6.948;2022-08-11T21:20:02;2.8;;;2.2;;
5403;SDS011;2725;51.054;6.948;2022-08-11T21:25:02;2.7;;;2.2;;
5403;SDS011;2725;51.054;6.948;2022-08-11T21:30:02;2.7;;;2.2;;
5403;SDS011;2725;51.054;6.948;2022-08-11T21:35:01;2.3;;;2.0;;
5403;SDS011;2725;51.054;6.948;2022-08-11T21:40:02;2.3;;;2.0;;
5403;SDS011;2725;51.054;6.948;2022-08-11T21:45:01;2.3;;;2.0;;
5403;SDS011;2725;51.054;6.948;2022-08-11T21:50:01;2.3;;;2.0;;
5403;SDS011;2725;51.054;6.948;2022-08-11T21:55:01;2.3;;;2.4;;
5403;SDS011;2725;51.054;6.948;2022-08-11T22:00:02;3.7;;;2.4;;
5403;SDS011;2725;51.054;6.948;2022-08-11T22:05:02;3.3;;;2.2;;
5403;SDS011;2725;51.054;6.948;2022-08-11T22:10:01;3.3;;;2.2;;
5403;SDS011;2725;51.054;6.948;2022-08-11T22:15:01;2.7;;;2.3;;
5403;SDS011;2725;51.054;6.948;2022-08-11T22:20:01;2.7;;;2.3;;
5403;SDS011;2725;51.054;6.948;2022-08-11T22:25:01;3.1;;;2.3;;
5403;SDS011;2725;51.054;6.948;2022-08-11T22:30:03;3.1;;;2.3;;
5403;SDS011;2725;51.054;6.948;2022-08-11T22:35:01;2.7;;;2.5;;
5403;SDS011;2725;51.054;6.948;2022-08-11T22:40:01;2.7;;;2.5;;
5403;SDS011;2725;51.054;6.948;2022-08-11T22:45:01;2.7;;;2.5;;
5403;SDS011;2725;51.054;6.948;2022-08-11T22:50:01;2.7;;;2.5;;
5403;SDS011;2725;51.054;6.948;2022-08-11T22:55:01;2.7;;;2.4;;
5403;SDS011;2725;51.054;6.948;2022-08-11T23:00:02;2.7;;;2.4;;
5403;SDS011;2725;51.054;6.948;2022-08-11T23:05:02;2.7;;;2.2;;
5403;SDS011;2725;51.054;6.948;2022-08-11T23:10:02;2.7;;;2.2;;
5403;SDS011;2725;51.054;6.948;2022-08-11T23:15:02;2.4;;;2.2;;
5403;SDS011;2725;51.054;6.948;2022-08-11T23:20:01;2.4;;;2.2;;
5403;SDS011;2725;51.054;6.948;2022-08-11T23:25:01;2.4;;;2.2;;
5403;SDS011;2725;51.054;6.948;2022-08-11T23:30:02;2.4;;;2.2;;
5403;SDS011;2725;51.054;6.948;2022-08-11T23:35:02;2.8;;;2.2;;
5403;SDS011;2725;51.054;6.948;2022-08-11T23:40:02;2.8;;;2.2;;
5403;SDS011;2725;51.054;6.948;2022-08-11T23:45:01;2.5;;;2.3;;
5403;SDS011;2725;51.054;6.948;2022-08-11T23:50:01;2.5;;;2.3;;
5403;SDS011;2725;51.054;6.948;2022-08-11T23:55:02;2.5;;;2.4;;
